createdAt,value
2018-09-29T00:00:46.464Z,51.09
2018-09-29T00:01:46.472Z,51.29
2018-09-29T00:02:46.443Z,51.19
2018-09-29T00:03:46.432Z,51.19
2018-09-29T00:04:46.420Z,51.29
2018-09-29T00:05:46.416Z,50.99
2018-09-29T00:06:46.420Z,51.09
2018-09-29T00:07:46.389Z,50.99
2018-09-29T00:08:46.377Z,51.42
2018-09-29T00:09:46.365Z,51.39
2018-09-29T00:10:46.356Z,51.29
2018-09-29T00:11:46.360Z,51.39
2018-09-29T00:12:46.334Z,51.01
2018-09-29T00:13:46.324Z,51.12
2018-09-29T00:14:46.314Z,51.39
2018-09-29T00:15:46.300Z,51.21
2018-09-29T00:16:46.306Z,51.39
2018-09-29T00:17:46.278Z,51.01
2018-09-29T00:18:46.268Z,51.42
2018-09-29T00:19:46.257Z,51.42
2018-09-29T00:20:46.247Z,51.09
2018-09-29T00:21:46.249Z,51.09
2018-09-29T00:22:46.226Z,51.12
2018-09-29T00:23:46.214Z,51.01
2018-09-29T00:24:46.207Z,51.51
2018-09-29T00:25:46.193Z,51.39
2018-09-29T00:26:46.195Z,51.29
2018-09-29T00:27:46.173Z,51.12
2018-09-29T00:28:46.160Z,51.42
2018-09-29T00:29:46.146Z,51.39
2018-09-29T00:30:46.140Z,51.42
2018-09-29T00:31:46.141Z,51.39
2018-09-29T00:32:46.116Z,51.51
2018-09-29T00:33:46.104Z,51.42
2018-09-29T00:34:46.098Z,51.62
2018-09-29T00:35:46.082Z,51.51
2018-09-29T00:36:46.087Z,51.42
2018-09-29T00:37:46.060Z,51.21
2018-09-29T00:38:46.050Z,51.62
2018-09-29T00:39:46.038Z,51.62
2018-09-29T00:40:46.030Z,51.62
2018-09-29T00:41:46.035Z,51.62
2018-09-29T00:42:46.005Z,51.42
2018-09-29T00:43:45.998Z,51.42
2018-09-29T00:44:45.987Z,51.42
2018-09-29T00:45:45.972Z,51.42
2018-09-29T00:46:45.981Z,51.62
2018-09-29T00:47:45.952Z,51.62
2018-09-29T00:48:45.941Z,51.72
2018-09-29T00:49:45.930Z,51.21
2018-09-29T00:50:45.919Z,51.72
2018-09-29T00:51:45.909Z,51.72
2018-09-29T00:52:45.911Z,51.72
2018-09-29T00:53:45.887Z,51.72
2018-09-29T00:54:45.876Z,51.42
2018-09-29T00:55:45.863Z,51.62
2018-09-29T00:56:45.856Z,51.62
2018-09-29T00:57:45.860Z,51.72
2018-09-29T00:58:45.833Z,51.32
2018-09-29T00:59:45.824Z,51.51
2018-09-29T01:00:45.810Z,51.32
2018-09-29T01:01:45.799Z,51.72
2018-09-29T01:02:45.803Z,51.32
2018-09-29T01:03:45.777Z,51.51
2018-09-29T01:04:45.768Z,51.42
2018-09-29T01:05:45.756Z,51.72
2018-09-29T01:06:45.747Z,51.42
2018-09-29T01:07:45.754Z,51.72
2018-09-29T01:08:45.723Z,51.72
2018-09-29T01:09:45.714Z,51.72
2018-09-29T01:10:45.704Z,51.72
2018-09-29T01:11:45.691Z,51.42
2018-09-29T01:12:45.693Z,51.72
2018-09-29T01:13:45.669Z,51.51
2018-09-29T01:14:45.659Z,51.51
2018-09-29T01:15:45.646Z,51.42
2018-09-29T01:16:45.635Z,51.72
2018-09-29T01:17:45.640Z,51.62
2018-09-29T01:18:45.613Z,51.42
2018-09-29T01:19:45.603Z,51.32
2018-09-29T01:20:45.598Z,51.51
2018-09-29T01:21:45.581Z,51.62
2018-09-29T01:22:45.589Z,51.72
2018-09-29T01:23:45.557Z,51.51
2018-09-29T01:24:45.547Z,51.62
2018-09-29T01:25:45.537Z,51.82
2018-09-29T01:26:45.527Z,51.42
2018-09-29T01:27:45.534Z,51.51
2018-09-29T01:28:45.508Z,51.51
2018-09-29T01:29:45.495Z,51.42
2018-09-29T01:30:45.482Z,51.51
2018-09-29T01:31:45.471Z,51.62
2018-09-29T01:32:45.476Z,51.62
2018-09-29T01:33:45.451Z,51.51
2018-09-29T01:34:45.441Z,51.62
2018-09-29T01:35:45.427Z,51.82
2018-09-29T01:36:45.417Z,51.51
2018-09-29T01:37:45.424Z,51.62
2018-09-29T01:38:45.396Z,51.51
2018-09-29T01:39:45.388Z,51.51
2018-09-29T01:40:45.374Z,51.42
2018-09-29T01:41:45.364Z,51.72
2018-09-29T01:42:45.366Z,51.54
2018-09-29T01:43:45.342Z,51.62
2018-09-29T01:44:45.330Z,51.51
2018-09-29T01:45:45.323Z,51.51
2018-09-29T01:46:45.311Z,51.62
2018-09-29T01:47:45.312Z,51.72
2018-09-29T01:48:45.286Z,51.82
2018-09-29T01:49:45.276Z,51.82
2018-09-29T01:50:45.265Z,51.82
2018-09-29T01:51:45.253Z,51.51
2018-09-29T01:52:45.256Z,51.62
2018-09-29T01:53:45.235Z,51.51
2018-09-29T01:54:45.222Z,51.64
2018-09-29T01:55:45.209Z,51.54
2018-09-29T01:56:45.200Z,51.62
2018-09-29T01:57:45.210Z,51.72
2018-09-29T01:58:45.176Z,51.64
2018-09-29T01:59:45.165Z,51.72
2018-09-29T02:00:45.155Z,51.72
2018-09-29T02:01:45.144Z,51.62
2018-09-29T02:02:45.156Z,51.82
2018-09-29T02:03:45.122Z,51.82
2018-09-29T02:04:45.112Z,51.74
2018-09-29T02:05:45.101Z,51.74
2018-09-29T02:06:45.089Z,51.84
2018-09-29T02:07:45.094Z,51.74
2018-09-29T02:08:45.071Z,51.74
2018-09-29T02:09:45.057Z,51.94
2018-09-29T02:10:45.045Z,51.54
2018-09-29T02:11:45.034Z,51.74
2018-09-29T02:12:45.039Z,51.84
2018-09-29T02:13:45.015Z,51.74
2018-09-29T02:14:45.002Z,51.84
2018-09-29T02:15:44.991Z,51.51
2018-09-29T02:16:44.980Z,51.84
2018-09-29T02:17:44.991Z,51.62
2018-09-29T02:18:44.959Z,51.74
2018-09-29T02:19:44.948Z,51.74
2018-09-29T02:20:44.936Z,51.84
2018-09-29T02:21:44.925Z,51.84
2018-09-29T02:22:44.915Z,51.74
2018-09-29T02:23:44.919Z,51.54
2018-09-29T02:24:44.893Z,51.74
2018-09-29T02:25:44.882Z,51.62
2018-09-29T02:26:44.876Z,51.74
2018-09-29T02:27:44.861Z,51.84
2018-09-29T02:28:44.870Z,51.84
2018-09-29T02:29:44.840Z,51.74
2018-09-29T02:30:44.828Z,51.74
2018-09-29T02:31:44.818Z,51.64
2018-09-29T02:32:44.810Z,51.74
2018-09-29T02:33:44.809Z,51.64
2018-09-29T02:34:44.784Z,51.84
2018-09-29T02:35:44.774Z,51.84
2018-09-29T02:36:44.764Z,51.74
2018-09-29T02:37:44.754Z,51.64
2018-09-29T02:38:44.755Z,51.74
2018-09-29T02:39:44.729Z,51.74
2018-09-29T02:40:44.719Z,51.74
2018-09-29T02:41:44.708Z,51.54
2018-09-29T02:42:44.698Z,51.74
2018-09-29T02:43:44.704Z,51.84
2018-09-29T02:44:44.675Z,51.84
2018-09-29T02:45:44.664Z,51.54
2018-09-29T02:46:44.655Z,51.64
2018-09-29T02:47:44.642Z,51.74
2018-09-29T02:48:44.647Z,51.64
2018-09-29T02:49:44.621Z,51.84
2018-09-29T02:50:44.612Z,51.54
2018-09-29T02:51:44.598Z,51.44
2018-09-29T02:52:44.586Z,51.74
2018-09-29T02:53:44.592Z,51.64
2018-09-29T02:54:44.566Z,51.54
2018-09-29T02:55:44.554Z,51.74
2018-09-29T02:56:44.546Z,51.44
2018-09-29T02:57:44.536Z,51.54
2018-09-29T02:58:44.536Z,51.84
2018-09-29T02:59:44.512Z,51.74
2018-09-29T03:00:44.501Z,51.74
2018-09-29T03:01:44.488Z,51.44
2018-09-29T03:02:44.484Z,51.54
2018-09-29T03:03:44.486Z,51.74
2018-09-29T03:04:44.456Z,51.64
2018-09-29T03:05:44.445Z,51.74
2018-09-29T03:06:44.434Z,51.44
2018-09-29T03:07:44.423Z,51.54
2018-09-29T03:08:44.425Z,51.74
2018-09-29T03:09:44.400Z,51.84
2018-09-29T03:10:44.390Z,51.74
2018-09-29T03:11:44.383Z,51.74
2018-09-29T03:12:44.368Z,51.64
2018-09-29T03:13:44.375Z,51.44
2018-09-29T03:14:44.346Z,51.44
2018-09-29T03:15:44.336Z,51.54
2018-09-29T03:16:44.325Z,51.44
2018-09-29T03:17:44.316Z,51.64
2018-09-29T03:18:44.318Z,51.44
2018-09-29T03:19:44.291Z,51.54
2018-09-29T03:20:44.285Z,51.34
2018-09-29T03:21:44.271Z,51.74
2018-09-29T03:22:44.258Z,51.44
2018-09-29T03:23:44.264Z,51.74
2018-09-29T03:24:44.240Z,51.74
2018-09-29T03:25:44.226Z,51.84
2018-09-29T03:26:44.215Z,51.54
2018-09-29T03:27:44.205Z,51.64
2018-09-29T03:28:44.208Z,51.87
2018-09-29T03:29:44.188Z,51.44
2018-09-29T03:30:44.170Z,51.84
2018-09-29T03:31:44.254Z,51.44
2018-09-29T03:32:44.163Z,51.84
2018-09-29T03:33:44.166Z,51.44
2018-09-29T03:34:44.131Z,51.44
2018-09-29T03:35:44.120Z,51.44
2018-09-29T03:36:44.104Z,51.44
2018-09-29T03:37:44.094Z,52.04
2018-09-29T03:38:44.092Z,51.87
2018-09-29T03:39:44.085Z,51.44
2018-09-29T03:40:44.063Z,51.56
2018-09-29T03:41:44.051Z,51.67
2018-09-29T03:42:44.039Z,51.84
2018-09-29T03:43:44.029Z,51.64
2018-09-29T03:44:44.031Z,52.07
2018-09-29T03:45:44.007Z,51.44
2018-09-29T03:46:43.995Z,51.56
2018-09-29T03:47:43.985Z,51.94
2018-09-29T03:48:43.980Z,51.44
2018-09-29T03:49:43.977Z,51.46
2018-09-29T03:50:43.951Z,51.84
2018-09-29T03:51:43.940Z,51.74
2018-09-29T03:52:43.928Z,51.94
2018-09-29T03:53:44.014Z,51.74
2018-09-29T03:54:43.922Z,51.97
2018-09-29T03:55:43.898Z,51.74
2018-09-29T03:56:43.889Z,51.87
2018-09-29T03:57:43.876Z,51.87
2018-09-29T03:58:43.867Z,51.97
2018-09-29T03:59:43.872Z,51.87
2018-09-29T04:00:43.841Z,51.87
2018-09-29T04:01:43.833Z,51.87
2018-09-29T04:02:43.823Z,51.87
2018-09-29T04:03:43.811Z,51.74
2018-09-29T04:04:43.812Z,52.07
2018-09-29T04:05:43.785Z,51.44
2018-09-29T04:06:43.782Z,51.56
2018-09-29T04:07:43.766Z,51.97
2018-09-29T04:08:43.755Z,51.97
2018-09-29T04:09:43.758Z,51.56
2018-09-29T04:10:43.732Z,51.76
2018-09-29T04:11:43.721Z,51.46
2018-09-29T04:12:43.710Z,51.87
2018-09-29T04:13:43.741Z,51.76
2018-09-29T04:14:43.703Z,51.97
2018-09-29T04:15:43.682Z,51.76
2018-09-29T04:16:43.668Z,51.87
2018-09-29T04:17:43.655Z,51.87
2018-09-29T04:18:43.644Z,51.56
2018-09-29T04:19:43.652Z,51.76
2018-09-29T04:20:43.621Z,51.87
2018-09-29T04:21:43.612Z,51.76
2018-09-29T04:22:43.602Z,51.87
2018-09-29T04:23:43.590Z,51.56
2018-09-29T04:24:43.592Z,51.76
2018-09-29T04:25:43.568Z,51.87
2018-09-29T04:26:43.558Z,51.97
2018-09-29T04:27:43.546Z,51.97
2018-09-29T04:28:43.535Z,51.87
2018-09-29T04:29:43.568Z,51.56
2018-09-29T04:30:43.513Z,51.67
2018-09-29T04:31:43.506Z,51.56
2018-09-29T04:32:43.493Z,51.56
2018-09-29T04:33:43.481Z,51.76
2018-09-29T04:34:43.483Z,51.87
2018-09-29T04:35:43.459Z,52.07
2018-09-29T04:36:43.446Z,51.76
2018-09-29T04:37:43.437Z,51.97
2018-09-29T04:38:43.423Z,51.76
2018-09-29T04:39:43.429Z,51.56
2018-09-29T04:40:43.403Z,51.76
2018-09-29T04:41:43.393Z,51.76
2018-09-29T04:42:43.380Z,51.56
2018-09-29T04:43:43.369Z,51.56
2018-09-29T04:44:43.379Z,51.56
2018-09-29T04:45:43.349Z,51.76
2018-09-29T04:46:43.337Z,52.07
2018-09-29T04:47:43.325Z,51.87
2018-09-29T04:48:43.315Z,51.56
2018-09-29T04:49:43.333Z,51.56
2018-09-29T04:50:43.293Z,51.56
2018-09-29T04:51:43.292Z,51.76
2018-09-29T04:52:43.271Z,51.76
2018-09-29T04:53:43.261Z,51.76
2018-09-29T04:54:43.249Z,51.76
2018-09-29T04:55:43.254Z,52.07
2018-09-29T04:56:43.227Z,52.07
2018-09-29T04:57:43.217Z,52.07
2018-09-29T04:58:43.207Z,51.76
2018-09-29T04:59:43.194Z,51.87
2018-09-29T05:00:43.199Z,51.87
2018-09-29T05:01:43.174Z,51.76
2018-09-29T05:02:43.166Z,51.87
2018-09-29T05:03:43.151Z,51.56
2018-09-29T05:04:43.137Z,51.76
2018-09-29T05:05:43.144Z,51.56
2018-09-29T05:06:43.119Z,51.97
2018-09-29T05:07:43.111Z,51.87
2018-09-29T05:08:43.097Z,51.87
2018-09-29T05:09:43.085Z,51.87
2018-09-29T05:10:43.089Z,52.17
2018-09-29T05:11:43.063Z,51.87
2018-09-29T05:12:43.108Z,51.76
2018-09-29T05:13:43.041Z,51.87
2018-09-29T05:14:43.032Z,51.87
2018-09-29T05:15:43.034Z,51.97
2018-09-29T05:16:43.007Z,52.26
2018-09-29T05:17:42.996Z,51.76
2018-09-29T05:18:42.988Z,51.76
2018-09-29T05:19:42.974Z,52.17
2018-09-29T05:20:42.980Z,51.56
2018-09-29T05:21:42.952Z,51.67
2018-09-29T05:22:42.942Z,52.07
2018-09-29T05:23:42.931Z,52.17
2018-09-29T05:24:42.919Z,52.26
2018-09-29T05:25:42.924Z,52.26
2018-09-29T05:26:42.898Z,51.87
2018-09-29T05:27:42.887Z,52.07
2018-09-29T05:28:42.876Z,52.07
2018-09-29T05:29:42.865Z,51.87
2018-09-29T05:30:42.889Z,51.97
2018-09-29T05:31:42.848Z,52.17
2018-09-29T05:32:42.836Z,51.97
2018-09-29T05:33:42.843Z,52.17
2018-09-29T05:34:42.812Z,52.19
2018-09-29T05:35:42.813Z,51.87
2018-09-29T05:36:42.792Z,51.87
2018-09-29T05:37:42.786Z,52.17
2018-09-29T05:38:42.773Z,51.76
2018-09-29T05:39:42.759Z,52.17
2018-09-29T05:40:42.763Z,51.97
2018-09-29T05:41:42.735Z,51.87
2018-09-29T05:42:42.724Z,51.97
2018-09-29T05:43:42.715Z,52.26
2018-09-29T05:44:42.703Z,51.67
2018-09-29T05:45:42.707Z,52.17
2018-09-29T05:46:42.679Z,52.07
2018-09-29T05:47:42.671Z,51.97
2018-09-29T05:48:42.660Z,51.67
2018-09-29T05:49:42.646Z,51.76
2018-09-29T05:50:42.650Z,52.26
2018-09-29T05:51:42.624Z,51.87
2018-09-29T05:52:42.613Z,52.26
2018-09-29T05:53:42.640Z,51.67
2018-09-29T05:54:42.599Z,51.76
2018-09-29T05:55:42.598Z,51.67
2018-09-29T05:56:42.588Z,52.17
2018-09-29T05:57:42.557Z,52.26
2018-09-29T05:58:42.547Z,51.97
2018-09-29T05:59:42.536Z,52.26
2018-09-29T06:00:42.616Z,52.26
2018-09-29T06:01:42.521Z,51.87
2018-09-29T06:02:42.514Z,51.76
2018-09-29T06:03:42.493Z,51.76
2018-09-29T06:04:42.481Z,51.97
2018-09-29T06:05:42.487Z,52.17
2018-09-29T06:06:42.480Z,51.87
2018-09-29T06:07:42.457Z,51.76
2018-09-29T06:08:42.438Z,51.87
2018-09-29T06:09:42.440Z,52.26
2018-09-29T06:10:42.415Z,52.26
2018-09-29T06:11:42.425Z,52.37
2018-09-29T06:12:42.392Z,51.76
2018-09-29T06:13:42.383Z,52.17
2018-09-29T06:14:42.375Z,51.87
2018-09-29T06:15:42.366Z,51.87
2018-09-29T06:16:42.364Z,51.76
2018-09-29T06:17:42.339Z,51.76
2018-09-29T06:18:42.328Z,51.87
2018-09-29T06:19:42.329Z,51.87
2018-09-29T06:20:42.305Z,51.87
2018-09-29T06:21:42.309Z,51.87
2018-09-29T06:22:42.284Z,51.87
2018-09-29T06:23:42.275Z,52.07
2018-09-29T06:24:42.264Z,51.87
2018-09-29T06:25:42.258Z,52.07
2018-09-29T06:26:42.266Z,51.87
2018-09-29T06:27:42.231Z,51.76
2018-09-29T06:28:42.218Z,51.87
2018-09-29T06:29:42.214Z,51.87
2018-09-29T06:30:42.201Z,52.17
2018-09-29T06:31:42.200Z,51.97
2018-09-29T06:32:42.176Z,51.67
2018-09-29T06:33:42.163Z,52.17
2018-09-29T06:34:42.153Z,51.87
2018-09-29T06:35:42.149Z,51.87
2018-09-29T06:36:42.202Z,52.07
2018-09-29T06:37:42.120Z,51.87
2018-09-29T06:38:42.110Z,51.79
2018-09-29T06:39:42.097Z,51.76
2018-09-29T06:40:42.118Z,51.89
2018-09-29T06:41:42.096Z,51.87
2018-09-29T06:42:42.077Z,51.87
2018-09-29T06:43:42.053Z,51.87
2018-09-29T06:44:42.042Z,51.87
2018-09-29T06:45:42.031Z,52.17
2018-09-29T06:46:42.064Z,51.87
2018-09-29T06:47:42.068Z,51.97
2018-09-29T06:48:42.012Z,51.97
2018-09-29T06:49:41.988Z,52.17
2018-09-29T06:50:41.978Z,52.17
2018-09-29T06:51:41.981Z,51.87
2018-09-29T06:52:41.956Z,51.56
2018-09-29T06:53:41.947Z,52.17
2018-09-29T06:54:41.951Z,52.26
2018-09-29T06:55:41.922Z,52.07
2018-09-29T06:56:41.927Z,52.29
2018-09-29T06:57:41.899Z,51.87
2018-09-29T06:58:41.894Z,52.17
2018-09-29T06:59:41.883Z,51.97
2018-09-29T07:00:41.868Z,51.89
2018-09-29T07:01:41.870Z,51.89
2018-09-29T07:02:41.844Z,51.87
2018-09-29T07:03:41.835Z,52.19
2018-09-29T07:04:41.823Z,51.87
2018-09-29T07:05:41.813Z,51.79
2018-09-29T07:06:41.821Z,51.87
2018-09-29T07:07:41.790Z,51.87
2018-09-29T07:08:41.780Z,51.76
2018-09-29T07:09:41.768Z,51.76
2018-09-29T07:10:41.757Z,51.79
2018-09-29T07:11:41.763Z,51.87
2018-09-29T07:12:41.739Z,51.89
2018-09-29T07:13:41.726Z,52.17
2018-09-29T07:14:41.714Z,52.09
2018-09-29T07:15:41.703Z,51.79
2018-09-29T07:16:41.709Z,52.07
2018-09-29T07:17:41.692Z,51.59
2018-09-29T07:18:41.668Z,51.56
2018-09-29T07:19:41.658Z,51.87
2018-09-29T07:20:41.647Z,51.76
2018-09-29T07:21:41.961Z,51.89
2018-09-29T07:22:41.628Z,52.09
2018-09-29T07:23:41.628Z,51.56
2018-09-29T07:24:41.605Z,52.17
2018-09-29T07:25:41.595Z,51.79
2018-09-29T07:26:41.581Z,51.79
2018-09-29T07:27:41.587Z,51.76
2018-09-29T07:28:41.566Z,51.87
2018-09-29T07:29:41.552Z,51.79
2018-09-29T07:30:41.540Z,51.76
2018-09-29T07:31:41.527Z,51.87
2018-09-29T07:32:41.529Z,52.07
2018-09-29T07:33:41.504Z,51.89
2018-09-29T07:34:41.502Z,51.87
2018-09-29T07:35:41.485Z,51.59
2018-09-29T07:36:41.474Z,51.79
2018-09-29T07:37:41.479Z,51.97
2018-09-29T07:38:41.451Z,51.67
2018-09-29T07:39:41.440Z,51.87
2018-09-29T07:40:41.436Z,51.76
2018-09-29T07:41:41.417Z,51.87
2018-09-29T07:42:41.422Z,51.79
2018-09-29T07:43:41.395Z,51.99
2018-09-29T07:44:41.383Z,51.79
2018-09-29T07:45:41.375Z,51.97
2018-09-29T07:46:41.373Z,51.56
2018-09-29T07:47:41.381Z,51.97
2018-09-29T07:48:41.339Z,51.67
2018-09-29T07:49:41.329Z,51.67
2018-09-29T07:50:41.324Z,51.97
2018-09-29T07:51:41.311Z,51.87
2018-09-29T07:52:41.320Z,52.07
2018-09-29T07:53:41.286Z,51.56
2018-09-29T07:54:41.322Z,51.67
2018-09-29T07:55:41.263Z,51.89
2018-09-29T07:56:41.266Z,51.67
2018-09-29T07:57:41.255Z,51.87
2018-09-29T07:58:41.228Z,52.07
2018-09-29T07:59:41.217Z,51.89
2018-09-29T08:00:41.207Z,51.87
2018-09-29T08:01:41.200Z,51.76
2018-09-29T08:02:41.204Z,51.89
2018-09-29T08:03:41.178Z,52.07
2018-09-29T08:04:41.163Z,51.97
2018-09-29T08:05:41.153Z,51.99
2018-09-29T08:06:41.142Z,51.97
2018-09-29T08:07:41.152Z,51.67
2018-09-29T08:08:41.119Z,51.69
2018-09-29T08:09:41.114Z,51.69
2018-09-29T08:10:41.097Z,51.87
2018-09-29T08:11:41.087Z,51.87
2018-09-29T08:12:41.093Z,51.56
2018-09-29T08:13:41.067Z,51.97
2018-09-29T08:14:41.057Z,51.87
2018-09-29T08:15:41.049Z,51.56
2018-09-29T08:16:41.031Z,51.69
2018-09-29T08:17:41.138Z,51.87
2018-09-29T08:18:41.010Z,51.56
2018-09-29T08:19:41.005Z,51.79
2018-09-29T08:20:40.994Z,51.46
2018-09-29T08:21:40.989Z,51.76
2018-09-29T08:22:40.966Z,51.46
2018-09-29T08:23:40.970Z,51.46
2018-09-29T08:24:40.942Z,51.76
2018-09-29T08:25:40.937Z,51.56
2018-09-29T08:26:40.932Z,51.56
2018-09-29T08:27:40.911Z,51.59
2018-09-29T08:28:40.918Z,51.49
2018-09-29T08:29:40.888Z,51.76
2018-09-29T08:30:40.879Z,51.56
2018-09-29T08:31:40.866Z,51.49
2018-09-29T08:32:40.862Z,51.46
2018-09-29T08:33:40.864Z,51.79
2018-09-29T08:34:40.832Z,51.76
2018-09-29T08:35:40.825Z,51.56
2018-09-29T08:36:40.812Z,51.76
2018-09-29T08:37:40.814Z,51.76
2018-09-29T08:38:40.853Z,51.76
2018-09-29T08:39:40.780Z,51.76
2018-09-29T08:40:40.775Z,51.69
2018-09-29T08:41:40.759Z,51.87
2018-09-29T08:42:40.749Z,51.67
2018-09-29T08:43:40.760Z,51.76
2018-09-29T08:44:40.735Z,51.56
2018-09-29T08:45:40.713Z,51.79
2018-09-29T08:46:40.735Z,51.76
2018-09-29T08:47:40.693Z,51.37
2018-09-29T08:48:40.695Z,51.56
2018-09-29T08:49:40.674Z,51.67
2018-09-29T08:50:40.669Z,51.76
2018-09-29T08:51:40.647Z,51.46
2018-09-29T08:52:40.637Z,51.87
2018-09-29T08:53:40.687Z,51.59
2018-09-29T08:54:40.626Z,51.76
2018-09-29T08:55:40.606Z,51.56
2018-09-29T08:56:40.593Z,51.76
2018-09-29T08:57:40.582Z,51.76
2018-09-29T08:58:40.586Z,51.67
2018-09-29T08:59:40.560Z,51.59
2018-09-29T09:00:40.555Z,51.76
2018-09-29T09:01:40.544Z,51.56
2018-09-29T09:02:40.528Z,51.67
2018-09-29T09:03:40.542Z,51.67
2018-09-29T09:04:40.510Z,51.67
2018-09-29T09:05:40.494Z,51.97
2018-09-29T09:06:40.485Z,51.87
2018-09-29T09:07:40.483Z,51.56
2018-09-29T09:08:40.487Z,51.67
2018-09-29T09:09:40.451Z,51.67
2018-09-29T09:10:40.439Z,51.87
2018-09-29T09:11:40.428Z,51.67
2018-09-29T09:12:40.422Z,51.56
2018-09-29T09:13:40.426Z,51.76
2018-09-29T09:14:40.396Z,51.76
2018-09-29T09:15:40.385Z,51.67
2018-09-29T09:16:40.419Z,51.87
2018-09-29T09:17:40.368Z,51.97
2018-09-29T09:18:40.380Z,51.87
2018-09-29T09:19:40.339Z,51.56
2018-09-29T09:20:40.336Z,51.76
2018-09-29T09:21:40.318Z,51.67
2018-09-29T09:22:40.315Z,51.56
2018-09-29T09:23:40.334Z,51.56
2018-09-29T09:24:40.287Z,51.67
2018-09-29T09:25:40.275Z,51.56
2018-09-29T09:26:40.262Z,51.37
2018-09-29T09:27:40.251Z,51.67
2018-09-29T09:28:40.268Z,51.56
2018-09-29T09:29:40.282Z,51.76
2018-09-29T09:30:40.227Z,51.76
2018-09-29T09:31:40.211Z,51.46
2018-09-29T09:32:40.200Z,51.76
2018-09-29T09:33:40.220Z,51.67
2018-09-29T09:34:40.176Z,51.26
2018-09-29T09:35:40.166Z,51.67
2018-09-29T09:36:40.158Z,51.46
2018-09-29T09:37:40.145Z,51.46
2018-09-29T09:38:40.135Z,51.26
2018-09-29T09:39:40.136Z,51.37
2018-09-29T09:40:40.114Z,51.26
2018-09-29T09:41:40.101Z,51.46
2018-09-29T09:42:40.099Z,51.56
2018-09-29T09:43:40.154Z,51.76
2018-09-29T09:44:40.085Z,51.67
2018-09-29T09:45:40.055Z,51.46
2018-09-29T09:46:40.052Z,51.46
2018-09-29T09:47:40.039Z,51.56
2018-09-29T09:48:40.033Z,51.46
2018-09-29T09:49:40.026Z,51.46
2018-09-29T09:50:39.999Z,51.17
2018-09-29T09:51:39.989Z,51.67
2018-09-29T09:52:39.981Z,51.06
2018-09-29T09:53:39.977Z,51.56
2018-09-29T09:54:39.975Z,51.46
2018-09-29T09:55:39.945Z,51.46
2018-09-29T09:56:39.933Z,51.46
2018-09-29T09:57:39.925Z,51.26
2018-09-29T09:58:39.913Z,51.06
2018-09-29T09:59:39.917Z,51.26
2018-09-29T10:00:39.893Z,51.26
2018-09-29T10:01:39.879Z,51.17
2018-09-29T10:02:39.870Z,51.17
2018-09-29T10:03:39.858Z,51.06
2018-09-29T10:04:39.864Z,51.17
2018-09-29T10:05:39.850Z,51.17
2018-09-29T10:06:39.825Z,51.17
2018-09-29T10:07:39.813Z,51.26
2018-09-29T10:08:39.803Z,50.86
2018-09-29T10:09:39.808Z,51.17
2018-09-29T10:10:39.784Z,50.96
2018-09-29T10:11:39.781Z,51.76
2018-09-29T10:12:39.758Z,50.96
2018-09-29T10:13:39.783Z,50.76
2018-09-29T10:14:39.752Z,50.96
2018-09-29T10:15:39.731Z,51.06
2018-09-29T10:16:39.722Z,50.84
2018-09-29T10:17:39.719Z,50.84
2018-09-29T10:18:39.692Z,50.96
2018-09-29T10:19:39.697Z,50.84
2018-09-29T10:20:39.671Z,50.44
2018-09-29T10:21:39.661Z,50.36
2018-09-29T10:22:39.653Z,50.34
2018-09-29T10:23:39.638Z,50.24
2018-09-29T10:24:39.643Z,50.54
2018-09-29T10:25:39.616Z,50.54
2018-09-29T10:26:39.603Z,50.63
2018-09-29T10:27:39.666Z,50.24
2018-09-29T10:28:39.592Z,50.84
2018-09-29T10:29:39.595Z,50.63
2018-09-29T10:30:39.562Z,50.34
2018-09-29T10:31:39.550Z,50.34
2018-09-29T10:32:39.539Z,50.54
2018-09-29T10:33:39.530Z,50.63
2018-09-29T10:34:39.534Z,50.44
2018-09-29T10:35:39.507Z,50.74
2018-09-29T10:36:39.498Z,50.34
2018-09-29T10:37:39.485Z,50.34
2018-09-29T10:38:39.480Z,50.54
2018-09-29T10:39:39.485Z,50.54
2018-09-29T10:40:39.461Z,50.63
2018-09-29T10:41:39.441Z,50.84
2018-09-29T10:42:39.432Z,50.24
2018-09-29T10:43:39.421Z,50.42
2018-09-29T10:44:39.426Z,50.21
2018-09-29T10:45:39.405Z,50.31
2018-09-29T10:46:39.387Z,50.92
2018-09-29T10:47:39.375Z,50.51
2018-09-29T10:48:39.366Z,50.62
2018-09-29T10:49:39.353Z,50.51
2018-09-29T10:50:39.362Z,50.42
2018-09-29T10:51:39.333Z,50.31
2018-09-29T10:52:39.324Z,50.42
2018-09-29T10:53:39.311Z,50.31
2018-09-29T10:54:39.300Z,50.31
2018-09-29T10:55:39.308Z,50.42
2018-09-29T10:56:39.278Z,50.01
2018-09-29T10:57:39.271Z,50.11
2018-09-29T10:58:39.261Z,50.31
2018-09-29T10:59:39.247Z,50.21
2018-09-29T11:00:39.251Z,50.11
2018-09-29T11:01:39.223Z,50.11
2018-09-29T11:02:39.262Z,50.42
2018-09-29T11:03:39.209Z,49.71
2018-09-29T11:04:39.191Z,49.91
2018-09-29T11:05:39.194Z,50.01
2018-09-29T11:06:39.169Z,49.69
2018-09-29T11:07:39.159Z,49.61
2018-09-29T11:08:39.149Z,49.91
2018-09-29T11:09:39.145Z,49.61
2018-09-29T11:10:39.147Z,49.79
2018-09-29T11:11:39.115Z,49.99
2018-09-29T11:12:39.105Z,49.89
2018-09-29T11:13:39.096Z,49.79
2018-09-29T11:14:39.087Z,50.09
2018-09-29T11:15:39.094Z,49.79
2018-09-29T11:16:39.060Z,50.19
2018-09-29T11:17:39.050Z,50.09
2018-09-29T11:18:39.040Z,49.89
2018-09-29T11:19:39.038Z,49.79
2018-09-29T11:20:39.054Z,49.46
2018-09-29T11:21:39.006Z,49.79
2018-09-29T11:22:38.997Z,50.16
2018-09-29T11:23:38.988Z,49.76
2018-09-29T11:24:38.976Z,49.79
2018-09-29T11:25:38.982Z,49.79
2018-09-29T11:26:38.954Z,49.76
2018-09-29T11:27:38.974Z,49.76
2018-09-29T11:28:38.933Z,49.26
2018-09-29T11:29:38.927Z,50.07
2018-09-29T11:30:38.930Z,50.07
2018-09-29T11:31:38.900Z,49.26
2018-09-29T11:32:38.893Z,49.46
2018-09-29T11:33:38.877Z,49.96
2018-09-29T11:34:38.867Z,49.66
2018-09-29T11:35:38.872Z,49.46
2018-09-29T11:36:38.852Z,49.87
2018-09-29T11:37:38.835Z,49.57
2018-09-29T11:38:38.827Z,49.66
2018-09-29T11:39:38.815Z,49.66
2018-09-29T11:40:38.935Z,49.46
2018-09-29T11:41:38.793Z,49.46
2018-09-29T11:42:38.783Z,49.74
2018-09-29T11:43:38.772Z,49.64
2018-09-29T11:44:38.812Z,49.84
2018-09-29T11:45:38.771Z,49.54
2018-09-29T11:46:38.740Z,49.54
2018-09-29T11:47:38.730Z,49.44
2018-09-29T11:48:38.720Z,49.44
2018-09-29T11:49:38.708Z,49.44
2018-09-29T11:50:38.713Z,49.14
2018-09-29T11:51:38.688Z,49.04
2018-09-29T11:52:38.679Z,48.74
2018-09-29T11:53:38.664Z,48.61
2018-09-29T11:54:38.654Z,49.11
2018-09-29T11:55:38.661Z,48.11
2018-09-29T11:56:38.641Z,48.82
2018-09-29T11:57:38.621Z,49.41
2018-09-29T11:58:38.613Z,48.11
2018-09-29T11:59:38.602Z,48.61
2018-09-29T12:00:38.611Z,48.22
2018-09-29T12:01:38.585Z,48.61
2018-09-29T12:02:38.591Z,48.52
2018-09-29T12:03:38.561Z,48.60
2018-09-29T12:04:38.549Z,48.49
2018-09-29T12:05:38.539Z,48.10
2018-09-29T12:06:38.541Z,48.39
2018-09-29T12:07:38.562Z,48.90
2018-09-29T12:08:38.520Z,48.19
2018-09-29T12:09:38.497Z,48.39
2018-09-29T12:10:38.486Z,48.19
2018-09-29T12:11:38.489Z,48.19
2018-09-29T12:12:38.468Z,47.17
2018-09-29T12:13:38.457Z,47.17
2018-09-29T12:14:38.456Z,47.17
2018-09-29T12:15:38.432Z,47.07
2018-09-29T12:16:38.436Z,47.27
2018-09-29T12:17:38.416Z,47.37
2018-09-29T12:18:38.406Z,47.67
2018-09-29T12:19:38.395Z,47.47
2018-09-29T12:20:38.397Z,47.27
2018-09-29T12:21:38.383Z,47.77
2018-09-29T12:22:38.358Z,47.47
2018-09-29T12:23:38.348Z,47.37
2018-09-29T12:24:38.344Z,47.87
2018-09-29T12:25:38.332Z,47.47
2018-09-29T12:26:38.336Z,47.37
2018-09-29T12:27:38.305Z,47.37
2018-09-29T12:28:38.295Z,47.67
2018-09-29T12:29:38.293Z,47.45
2018-09-29T12:30:38.285Z,47.25
2018-09-29T12:31:38.277Z,46.85
2018-09-29T12:32:38.251Z,46.67
2018-09-29T12:33:38.240Z,46.55
2018-09-29T12:34:38.230Z,46.65
2018-09-29T12:35:38.218Z,46.65
2018-09-29T12:36:38.228Z,46.65
2018-09-29T12:37:38.310Z,46.85
2018-09-29T12:38:38.187Z,47.15
2018-09-29T12:39:38.175Z,46.35
2018-09-29T12:40:38.165Z,46.45
2018-09-29T12:41:38.174Z,46.73
2018-09-29T12:42:38.154Z,46.33
2018-09-29T12:43:38.143Z,46.62
2018-09-29T12:44:38.143Z,46.33
2018-09-29T12:45:38.110Z,46.53
2018-09-29T12:46:38.111Z,46.23
2018-09-29T12:47:38.105Z,46.53
2018-09-29T12:48:38.079Z,46.43
2018-09-29T12:49:38.073Z,46.43
2018-09-29T12:50:38.055Z,46.53
2018-09-29T12:51:38.125Z,46.73
2018-09-29T12:52:38.032Z,46.53